Time;durP1;ratioP1;P1;durP2;ratioP2;P2;SDS_P1;SDS_P2;PMS_P1;PMS_P2;Temp;Humidity;BMP_temperature;BMP_pressure;BME280_temperature;BME280_humidity;BME280_pressure;Samples;Min_cycle;Max_cycle;Signal;HPM_P1;HPM_P2
2021/09/09 00:01:06;;;;;;;38.53;16.80;;;;;;;;;;5055879;28;20029;-76
2021/09/09 00:03:32;;;;;;;31.98;15.68;;;;;;;;;;5056025;28;20416;-76
2021/09/09 00:05:57;;;;;;;32.85;16.40;;;;;;;;;;5055912;28;20036;-74
2021/09/09 00:08:22;;;;;;;36.28;15.35;;;;;;;;;;5055793;28;20024;-75
2021/09/09 00:10:47;;;;;;;32.50;13.90;;;;;;;;;;5055790;28;20032;-75
2021/09/09 00:13:13;;;;;;;33.47;16.08;;;;;;;;;;5055618;28;20063;-74
2021/09/09 00:15:38;;;;;;;32.00;14.13;;;;;;;;;;5055695;28;20025;-75
2021/09/09 00:18:03;;;;;;;37.50;14.50;;;;;;;;;;5055180;28;20033;-75
2021/09/09 00:20:29;;;;;;;33.67;16.90;;;;;;;;;;5055644;28;20086;-74
2021/09/09 00:22:54;;;;;;;35.03;14.57;;;;;;;;;;5055642;28;20025;-74
2021/09/09 00:25:19;;;;;;;32.55;16.48;;;;;;;;;;5055380;28;20048;-75
2021/09/09 00:27:44;;;;;;;34.85;16.13;;;;;;;;;;5055670;28;20032;-75
2021/09/09 00:30:10;;;;;;;41.05;17.10;;;;;;;;;;5055347;28;20044;-75
2021/09/09 00:32:35;;;;;;;38.20;17.05;;;;;;;;;;5055509;28;20056;-75
2021/09/09 00:35:01;;;;;;;32.92;15.20;;;;;;;;;;5055352;28;20443;-75
2021/09/09 00:37:26;;;;;;;34.83;14.93;;;;;;;;;;5055063;28;20092;-75
2021/09/09 00:39:51;;;;;;;35.25;15.23;;;;;;;;;;5055334;28;20037;-75
2021/09/09 00:42:17;;;;;;;34.40;15.40;;;;;;;;;;5054579;28;20035;-75
2021/09/09 00:44:42;;;;;;;38.70;14.82;;;;;;;;;;5055213;28;20369;-74
2021/09/09 00:47:08;;;;;;;46.58;18.10;;;;;;;;;;5051908;28;20033;-76
2021/09/09 00:49:35;;;;;;;44.28;17.30;;;;;;;;;;5053907;28;20041;-74
2021/09/09 00:52:00;;;;;;;35.85;16.95;;;;;;;;;;5055027;28;20024;-75
2021/09/09 00:54:26;;;;;;;41.05;16.38;;;;;;;;;;5054815;28;20052;-75
2021/09/09 00:56:51;;;;;;;38.15;14.82;;;;;;;;;;5054931;28;20032;-75
2021/09/09 00:59:17;;;;;;;31.15;15.30;;;;;;;;;;5054525;28;20090;-75
2021/09/09 01:01:43;;;;;;;37.20;17.05;;;;;;;;;;5054581;28;20539;-75
2021/09/09 01:04:08;;;;;;;37.85;16.63;;;;;;;;;;5053349;28;20033;-74
2021/09/09 01:06:34;;;;;;;35.70;17.98;;;;;;;;;;5055006;28;20103;-74
2021/09/09 01:09:00;;;;;;;39.63;17.23;;;;;;;;;;5054743;28;20465;-75
2021/09/09 01:11:26;;;;;;;41.22;16.70;;;;;;;;;;5054681;28;20497;-75
2021/09/09 01:13:51;;;;;;;56.00;22.05;;;;;;;;;;5054364;28;20099;-75
2021/09/09 01:16:17;;;;;;;65.43;26.52;;;;;;;;;;5054148;28;20113;-75
2021/09/09 01:18:42;;;;;;;83.43;32.00;;;;;;;;;;5054475;28;20124;-74
2021/09/09 01:21:08;;;;;;;100.43;34.67;;;;;;;;;;5054398;28;20021;-74
2021/09/09 01:23:34;;;;;;;89.75;34.80;;;;;;;;;;5054514;28;20033;-75
2021/09/09 01:25:59;;;;;;;96.28;33.13;;;;;;;;;;5054305;28;20500;-75
2021/09/09 01:28:24;;;;;;;126.68;39.53;;;;;;;;;;5054285;28;20025;-75
2021/09/09 01:30:50;;;;;;;74.43;25.08;;;;;;;;;;5054315;28;20473;-75
2021/09/09 01:33:15;;;;;;;77.07;25.48;;;;;;;;;;5054347;28;20041;-75
2021/09/09 01:35:40;;;;;;;48.05;18.42;;;;;;;;;;5054183;28;20114;-75
2021/09/09 01:38:17;;;;;;;61.10;22.50;;;;;;;;;;5054257;28;20480;-75
2021/09/09 01:40:42;;;;;;;49.83;20.10;;;;;;;;;;5053826;28;20532;-75
2021/09/09 01:43:07;;;;;;;57.20;21.58;;;;;;;;;;5053918;28;20098;-75
2021/09/09 01:45:33;;;;;;;41.88;18.58;;;;;;;;;;5054138;28;20381;-74
2021/09/09 01:48:00;;;;;;;50.72;20.48;;;;;;;;;;5053887;28;20017;-75
2021/09/09 01:50:25;;;;;;;45.15;18.67;;;;;;;;;;5053924;28;20052;-75
2021/09/09 01:52:51;;;;;;;56.78;20.33;;;;;;;;;;5053911;28;20102;-74
2021/09/09 01:55:16;;;;;;;50.10;18.73;;;;;;;;;;5053780;28;20087;-74
2021/09/09 01:57:41;;;;;;;63.38;21.13;;;;;;;;;;5053651;28;20116;-74
2021/09/09 02:00:07;;;;;;;37.47;18.45;;;;;;;;;;5053136;28;20036;-76
2021/09/09 02:02:32;;;;;;;38.95;17.70;;;;;;;;;;5053591;28;20024;-75
2021/09/09 02:04:58;;;;;;;47.50;20.20;;;;;;;;;;5053798;28;20035;-75
2021/09/09 02:07:23;;;;;;;50.08;20.55;;;;;;;;;;5053597;28;20029;-75
2021/09/09 02:09:48;;;;;;;69.97;25.70;;;;;;;;;;5053704;28;20446;-75
2021/09/09 02:12:13;;;;;;;56.70;23.45;;;;;;;;;;5053413;28;20036;-75
2021/09/09 02:14:39;;;;;;;54.33;22.13;;;;;;;;;;5053193;28;20036;-75
2021/09/09 02:17:04;;;;;;;60.67;24.13;;;;;;;;;;5053517;28;20024;-74
2021/09/09 02:19:29;;;;;;;67.28;23.38;;;;;;;;;;5053121;28;20083;-74
2021/09/09 02:21:55;;;;;;;69.20;23.77;;;;;;;;;;5053466;28;20036;-75
2021/09/09 02:24:20;;;;;;;49.50;21.23;;;;;;;;;;5053323;28;20020;-75
2021/09/09 02:26:45;;;;;;;48.47;22.63;;;;;;;;;;5053236;28;20033;-75
2021/09/09 02:29:10;;;;;;;60.40;23.40;;;;;;;;;;5053269;28;20039;-75
2021/09/09 02:31:36;;;;;;;39.97;18.25;;;;;;;;;;5053217;28;20059;-75
2021/09/09 02:34:01;;;;;;;54.15;20.90;;;;;;;;;;5053345;28;20037;-75
2021/09/09 02:36:26;;;;;;;65.80;23.58;;;;;;;;;;5053251;28;20432;-75
2021/09/09 02:38:52;;;;;;;57.28;22.55;;;;;;;;;;5053357;28;20033;-75
2021/09/09 02:41:17;;;;;;;69.80;25.52;;;;;;;;;;5053168;28;20428;-74
2021/09/09 02:43:42;;;;;;;48.70;21.13;;;;;;;;;;5053209;28;20061;-75
2021/09/09 02:46:07;;;;;;;62.08;25.40;;;;;;;;;;5053143;28;20381;-76
2021/09/09 02:48:33;;;;;;;100.18;35.33;;;;;;;;;;5052005;28;20037;-74
2021/09/09 02:50:58;;;;;;;99.55;33.97;;;;;;;;;;5053176;28;20457;-75
2021/09/09 02:53:23;;;;;;;165.20;43.13;;;;;;;;;;5053227;28;20021;-75
2021/09/09 02:55:49;;;;;;;108.65;35.20;;;;;;;;;;5053101;28;20375;-74
2021/09/09 02:58:14;;;;;;;122.32;37.80;;;;;;;;;;5052891;28;20037;-74
2021/09/09 03:00:39;;;;;;;131.27;39.72;;;;;;;;;;5052840;28;20024;-75
2021/09/09 03:03:04;;;;;;;116.68;37.65;;;;;;;;;;5052985;28;20029;-74
2021/09/09 03:05:30;;;;;;;97.40;37.20;;;;;;;;;;5052757;28;20033;-74
2021/09/09 03:07:55;;;;;;;113.07;38.60;;;;;;;;;;5053076;28;20021;-75
2021/09/09 03:10:20;;;;;;;156.82;42.70;;;;;;;;;;5052968;28;20138;-75
2021/09/09 03:12:45;;;;;;;120.43;34.75;;;;;;;;;;5053133;28;20029;-74
2021/09/09 03:15:11;;;;;;;107.03;33.05;;;;;;;;;;5052539;28;20553;-74
2021/09/09 03:17:36;;;;;;;116.70;35.65;;;;;;;;;;5052811;28;20032;-74
2021/09/09 03:20:01;;;;;;;121.53;34.85;;;;;;;;;;5052912;28;20041;-74
2021/09/09 03:22:27;;;;;;;117.88;36.20;;;;;;;;;;5053166;28;20025;-75
2021/09/09 03:24:52;;;;;;;119.03;39.20;;;;;;;;;;5052845;28;20052;-75
2021/09/09 03:27:17;;;;;;;117.47;37.97;;;;;;;;;;5054195;28;20033;-75
2021/09/09 03:29:42;;;;;;;174.38;49.47;;;;;;;;;;5056650;28;20032;-75
2021/09/09 03:32:08;;;;;;;154.07;45.60;;;;;;;;;;5056320;28;20444;-75
2021/09/09 03:34:33;;;;;;;208.07;49.63;;;;;;;;;;5056567;28;20024;-74
2021/09/09 03:36:58;;;;;;;172.40;43.90;;;;;;;;;;5056336;28;20024;-75
2021/09/09 03:39:23;;;;;;;135.95;40.55;;;;;;;;;;5056004;28;20477;-75
2021/09/09 03:41:49;;;;;;;102.07;32.80;;;;;;;;;;5056484;28;20477;-77
2021/09/09 03:44:14;;;;;;;90.47;31.55;;;;;;;;;;5055891;28;20151;-75
2021/09/09 03:46:39;;;;;;;102.75;32.28;;;;;;;;;;5055695;28;20155;-75
2021/09/09 03:49:05;;;;;;;85.57;29.05;;;;;;;;;;5056176;28;20386;-75
2021/09/09 03:51:30;;;;;;;76.05;28.38;;;;;;;;;;5056252;28;20044;-75
2021/09/09 03:53:55;;;;;;;65.68;26.27;;;;;;;;;;5056141;28;20488;-74
2021/09/09 03:56:20;;;;;;;63.42;26.83;;;;;;;;;;5055849;28;20116;-75
2021/09/09 03:58:46;;;;;;;76.90;26.98;;;;;;;;;;5055918;28;20037;-74
2021/09/09 04:01:11;;;;;;;87.28;29.60;;;;;;;;;;5055936;28;20068;-75
2021/09/09 04:03:36;;;;;;;86.43;31.30;;;;;;;;;;5056006;28;20041;-75
2021/09/09 04:06:02;;;;;;;82.63;29.42;;;;;;;;;;5055591;28;20458;-75
2021/09/09 04:08:27;;;;;;;92.43;30.50;;;;;;;;;;5055827;28;20029;-75
2021/09/09 04:10:52;;;;;;;72.05;28.10;;;;;;;;;;5055960;28;20087;-74
2021/09/09 04:13:18;;;;;;;76.63;28.52;;;;;;;;;;5055651;28;20021;-75
2021/09/09 04:15:43;;;;;;;79.78;27.35;;;;;;;;;;5055840;28;20393;-75
2021/09/09 04:18:08;;;;;;;75.60;29.75;;;;;;;;;;5055557;28;20123;-74
2021/09/09 04:20:34;;;;;;;89.03;31.58;;;;;;;;;;5055877;28;20458;-75
2021/09/09 04:22:59;;;;;;;128.98;39.53;;;;;;;;;;5055549;28;20025;-75
2021/09/09 04:25:24;;;;;;;122.50;38.83;;;;;;;;;;5055475;28;20041;-74
2021/09/09 04:27:50;;;;;;;82.20;31.30;;;;;;;;;;5055662;28;20104;-75
2021/09/09 04:30:15;;;;;;;118.38;34.55;;;;;;;;;;5055406;28;20025;-75
2021/09/09 04:32:40;;;;;;;57.33;25.52;;;;;;;;;;5055474;28;20253;-75
2021/09/09 04:35:06;;;;;;;71.20;27.80;;;;;;;;;;5055396;28;20458;-75
2021/09/09 04:37:33;;;;;;;83.80;29.65;;;;;;;;;;5054899;28;20091;-75
2021/09/09 04:39:58;;;;;;;119.63;35.10;;;;;;;;;;5055264;28;20446;-74
2021/09/09 04:42:24;;;;;;;122.95;38.20;;;;;;;;;;5055206;28;20060;-75
2021/09/09 04:44:49;;;;;;;106.93;36.03;;;;;;;;;;5055188;28;20434;-74
2021/09/09 04:47:14;;;;;;;175.85;45.50;;;;;;;;;;5054798;28;20041;-74
2021/09/09 04:49:39;;;;;;;130.98;39.20;;;;;;;;;;5055167;28;20021;-75
2021/09/09 04:52:05;;;;;;;105.43;36.30;;;;;;;;;;5055435;28;20120;-75
2021/09/09 04:54:30;;;;;;;77.25;28.10;;;;;;;;;;5055057;28;20416;-75
2021/09/09 04:56:55;;;;;;;66.68;27.75;;;;;;;;;;5055014;28;20060;-75
2021/09/09 04:59:21;;;;;;;78.03;28.85;;;;;;;;;;5054769;28;20080;-74
2021/09/09 05:01:46;;;;;;;63.63;26.58;;;;;;;;;;5054917;28;20037;-75
2021/09/09 05:04:11;;;;;;;81.28;28.77;;;;;;;;;;5054787;28;20021;-75
2021/09/09 05:06:36;;;;;;;77.03;29.40;;;;;;;;;;5054788;28;20025;-74
2021/09/09 05:09:02;;;;;;;73.93;27.25;;;;;;;;;;5054745;28;20354;-75
2021/09/09 05:11:27;;;;;;;46.58;23.85;;;;;;;;;;5054676;28;20045;-75
2021/09/09 05:13:52;;;;;;;57.25;22.65;;;;;;;;;;5054642;28;20032;-74
2021/09/09 05:16:18;;;;;;;40.60;20.00;;;;;;;;;;5054539;28;20110;-76
2021/09/09 05:18:43;;;;;;;48.40;21.95;;;;;;;;;;5054576;28;20032;-75
2021/09/09 05:21:08;;;;;;;44.55;21.00;;;;;;;;;;5054856;28;20061;-75
2021/09/09 05:23:33;;;;;;;52.00;22.55;;;;;;;;;;5054396;28;20377;-75
2021/09/09 05:25:59;;;;;;;39.35;18.65;;;;;;;;;;5054397;28;20074;-75
2021/09/09 05:28:24;;;;;;;44.88;19.33;;;;;;;;;;5054324;28;20025;-75
2021/09/09 05:30:49;;;;;;;39.95;19.08;;;;;;;;;;5054738;28;20397;-75
2021/09/09 05:33:14;;;;;;;38.17;17.90;;;;;;;;;;5054242;28;20690;-76
2021/09/09 05:35:40;;;;;;;32.33;18.08;;;;;;;;;;5054255;28;20035;-75
2021/09/09 05:38:06;;;;;;;37.20;19.10;;;;;;;;;;5053791;28;20424;-75
2021/09/09 05:40:32;;;;;;;43.25;20.15;;;;;;;;;;5054120;28;20140;-75
2021/09/09 05:42:57;;;;;;;59.33;23.25;;;;;;;;;;5054069;28;20473;-75
2021/09/09 05:45:22;;;;;;;52.35;22.20;;;;;;;;;;5054080;28;20032;-75
2021/09/09 05:47:48;;;;;;;73.95;27.27;;;;;;;;;;5053977;28;20016;-75
2021/09/09 05:50:13;;;;;;;65.43;26.38;;;;;;;;;;5053021;28;20078;-74
2021/09/09 05:52:38;;;;;;;36.65;18.83;;;;;;;;;;5053547;28;20028;-75
2021/09/09 05:55:04;;;;;;;32.35;17.88;;;;;;;;;;5053956;28;20013;-75
2021/09/09 05:57:29;;;;;;;41.08;19.52;;;;;;;;;;5053750;28;20024;-75
2021/09/09 05:59:54;;;;;;;45.47;21.30;;;;;;;;;;5053740;28;20037;-74
2021/09/09 06:02:21;;;;;;;35.67;17.65;;;;;;;;;;5053674;28;20047;-75
2021/09/09 06:04:47;;;;;;;50.20;21.67;;;;;;;;;;5053745;28;20029;-74
2021/09/09 06:07:13;;;;;;;41.45;20.85;;;;;;;;;;5053737;28;20111;-75
2021/09/09 06:09:39;;;;;;;30.92;16.45;;;;;;;;;;5053538;28;20449;-75
2021/09/09 06:12:05;;;;;;;47.47;20.48;;;;;;;;;;5053743;28;20067;-75
2021/09/09 06:14:30;;;;;;;30.05;16.65;;;;;;;;;;5053472;28;20052;-75
2021/09/09 06:16:55;;;;;;;38.92;17.90;;;;;;;;;;5053614;28;20028;-75
2021/09/09 06:19:21;;;;;;;33.92;18.17;;;;;;;;;;5053305;28;20444;-75
2021/09/09 06:21:46;;;;;;;38.22;18.92;;;;;;;;;;5052361;28;20064;-74
2021/09/09 06:24:11;;;;;;;34.08;18.85;;;;;;;;;;5053320;28;20025;-76
2021/09/09 06:26:36;;;;;;;26.77;13.90;;;;;;;;;;5053357;28;20087;-76
2021/09/09 06:29:02;;;;;;;24.60;14.05;;;;;;;;;;5053418;28;20037;-75
2021/09/09 06:31:28;;;;;;;27.38;15.27;;;;;;;;;;5052935;28;20024;-75
2021/09/09 06:33:53;;;;;;;34.42;17.30;;;;;;;;;;5053497;28;20076;-75
2021/09/09 06:36:18;;;;;;;44.95;20.40;;;;;;;;;;5053176;28;20097;-75
2021/09/09 06:38:44;;;;;;;36.75;17.50;;;;;;;;;;5051955;28;20389;-74
2021/09/09 06:41:09;;;;;;;27.17;15.52;;;;;;;;;;5053162;28;20458;-75
2021/09/09 06:43:34;;;;;;;56.80;26.17;;;;;;;;;;5053078;28;20033;-75
2021/09/09 06:46:00;;;;;;;25.25;13.23;;;;;;;;;;5053289;28;20365;-75
2021/09/09 06:48:25;;;;;;;26.58;14.52;;;;;;;;;;5052826;28;20040;-75
2021/09/09 06:50:50;;;;;;;16.73;11.38;;;;;;;;;;5052910;28;20484;-75
2021/09/09 06:53:16;;;;;;;16.88;10.98;;;;;;;;;;5053071;28;20025;-77
2021/09/09 06:55:41;;;;;;;50.97;23.75;;;;;;;;;;5052812;28;20099;-75
2021/09/09 06:58:06;;;;;;;82.53;36.45;;;;;;;;;;5053147;28;20029;-75
2021/09/09 07:00:31;;;;;;;84.13;38.60;;;;;;;;;;5053241;28;20063;-75
2021/09/09 07:02:57;;;;;;;80.53;37.88;;;;;;;;;;5057184;28;20036;-75
2021/09/09 07:05:22;;;;;;;79.95;37.45;;;;;;;;;;5056926;28;20032;-76
2021/09/09 07:07:47;;;;;;;75.18;35.05;;;;;;;;;;5048509;28;20021;-75
2021/09/09 07:10:13;;;;;;;87.22;36.17;;;;;;;;;;5056672;28;20033;-76
2021/09/09 07:12:38;;;;;;;75.43;33.60;;;;;;;;;;5056605;28;20029;-75
2021/09/09 07:15:04;;;;;;;59.78;32.55;;;;;;;;;;5047314;28;20096;-75
2021/09/09 07:17:29;;;;;;;62.55;31.08;;;;;;;;;;5036807;28;20052;-75
2021/09/09 07:19:55;;;;;;;60.60;29.40;;;;;;;;;;5036810;28;20363;-75
2021/09/09 07:22:20;;;;;;;52.13;28.73;;;;;;;;;;5040927;28;20024;-75
2021/09/09 07:24:45;;;;;;;47.95;27.30;;;;;;;;;;5056701;28;20025;-75
2021/09/09 07:27:10;;;;;;;48.53;27.20;;;;;;;;;;5056615;28;20033;-75
2021/09/09 07:29:36;;;;;;;47.00;27.55;;;;;;;;;;5043889;28;20021;-76
2021/09/09 07:32:01;;;;;;;39.47;25.73;;;;;;;;;;5046835;28;20132;-75
2021/09/09 07:34:27;;;;;;;44.92;26.30;;;;;;;;;;5036187;28;20378;-76
2021/09/09 07:36:53;;;;;;;44.22;25.90;;;;;;;;;;5047031;28;20359;-75
2021/09/09 07:39:19;;;;;;;40.53;24.35;;;;;;;;;;5055074;28;20367;-76
2021/09/09 07:41:45;;;;;;;38.47;23.83;;;;;;;;;;5054544;28;20033;-75
2021/09/09 07:44:10;;;;;;;36.65;22.48;;;;;;;;;;5046408;28;20041;-75
2021/09/09 07:46:35;;;;;;;37.90;22.75;;;;;;;;;;5035987;28;20167;-76
2021/09/09 07:49:01;;;;;;;33.75;20.40;;;;;;;;;;5048962;28;20052;-75
2021/09/09 07:51:26;;;;;;;31.95;21.27;;;;;;;;;;5056731;28;20024;-75
2021/09/09 07:53:51;;;;;;;40.33;23.27;;;;;;;;;;5063382;28;20111;-76
2021/09/09 07:56:17;;;;;;;45.08;25.05;;;;;;;;;;5057696;28;20376;-78
2021/09/09 07:58:47;;;;;;;46.55;25.45;;;;;;;;;;5057316;28;20037;-76
2021/09/09 08:01:12;;;;;;;61.25;29.20;;;;;;;;;;5059642;28;20031;-76
2021/09/09 08:03:37;;;;;;;57.53;27.67;;;;;;;;;;5055927;28;20033;-77
2021/09/09 08:06:02;;;;;;;63.40;28.92;;;;;;;;;;5056072;28;20017;-76
2021/09/09 08:08:28;;;;;;;89.15;33.88;;;;;;;;;;5048555;28;20124;-76
2021/09/09 08:10:53;;;;;;;71.10;32.05;;;;;;;;;;5050411;28;20899;-76
2021/09/09 08:13:18;;;;;;;75.13;31.73;;;;;;;;;;5051687;28;20347;-78
2021/09/09 08:15:44;;;;;;;67.63;30.67;;;;;;;;;;5052144;28;20056;-78
2021/09/09 08:18:09;;;;;;;71.55;31.42;;;;;;;;;;5052360;28;20116;-78
2021/09/09 08:20:34;;;;;;;77.00;32.75;;;;;;;;;;5052416;28;20033;-77
2021/09/09 08:22:59;;;;;;;68.32;30.40;;;;;;;;;;5052177;28;20071;-78
2021/09/09 08:25:25;;;;;;;56.40;28.52;;;;;;;;;;5052564;28;20094;-77
2021/09/09 08:27:50;;;;;;;51.58;26.65;;;;;;;;;;5052361;28;20067;-79
2021/09/09 08:30:15;;;;;;;53.45;27.27;;;;;;;;;;5051718;28;20032;-77
2021/09/09 08:32:41;;;;;;;48.78;26.10;;;;;;;;;;5044842;28;20877;-79
2021/09/09 08:35:07;;;;;;;46.67;25.65;;;;;;;;;;5050518;28;20043;-77
2021/09/09 08:37:32;;;;;;;55.42;26.70;;;;;;;;;;5051189;28;20025;-77
2021/09/09 08:39:58;;;;;;;64.72;29.88;;;;;;;;;;5050467;28;20045;-77
2021/09/09 08:42:24;;;;;;;73.68;30.33;;;;;;;;;;5050888;28;20346;-77
2021/09/09 08:44:49;;;;;;;64.25;27.98;;;;;;;;;;5051328;28;20060;-78
2021/09/09 08:47:15;;;;;;;87.95;30.55;;;;;;;;;;5050997;28;20040;-77
2021/09/09 08:49:40;;;;;;;92.95;32.17;;;;;;;;;;5050502;28;20052;-78
2021/09/09 08:52:06;;;;;;;73.28;30.45;;;;;;;;;;5051153;28;20086;-77
2021/09/09 08:54:32;;;;;;;83.88;32.05;;;;;;;;;;5050792;28;20044;-77
2021/09/09 08:56:57;;;;;;;89.05;31.75;;;;;;;;;;5051003;28;20021;-76
2021/09/09 08:59:22;;;;;;;70.03;30.73;;;;;;;;;;5048656;28;20497;-78
2021/09/09 09:02:01;;;;;;;83.13;29.58;;;;;;;;;;5040234;28;20040;-77
2021/09/09 09:04:27;;;;;;;107.25;32.55;;;;;;;;;;5051397;28;20171;-79
2021/09/09 09:06:52;;;;;;;105.28;34.65;;;;;;;;;;5050858;28;20521;-77
2021/09/09 09:09:20;;;;;;;98.55;32.22;;;;;;;;;;5050452;28;20025;-77
2021/09/09 09:11:46;;;;;;;99.05;31.85;;;;;;;;;;5037339;28;20057;-77
2021/09/09 09:14:18;;;;;;;84.03;30.65;;;;;;;;;;5031398;28;20033;-77
2021/09/09 09:17:11;;;;;;;69.32;27.52;;;;;;;;;;5030825;28;20029;-77
2021/09/09 09:19:41;;;;;;;93.85;29.42;;;;;;;;;;5030342;28;20061;-77
2021/09/09 09:22:08;;;;;;;73.00;29.17;;;;;;;;;;5030572;28;20398;-77
2021/09/09 09:24:42;;;;;;;89.50;30.48;;;;;;;;;;5030850;28;20049;-77
2021/09/09 09:27:09;;;;;;;91.88;31.55;;;;;;;;;;5030876;28;20112;-77
2021/09/09 09:29:34;;;;;;;110.97;34.08;;;;;;;;;;5031516;28;20029;-77
2021/09/09 09:32:09;;;;;;;91.40;30.50;;;;;;;;;;5044673;28;20147;-77
2021/09/09 09:34:35;;;;;;;118.90;34.55;;;;;;;;;;5051786;28;20060;-77
2021/09/09 09:37:00;;;;;;;104.90;34.35;;;;;;;;;;5049838;28;20052;-79
2021/09/09 09:39:26;;;;;;;106.32;32.80;;;;;;;;;;5050800;28;20048;-77
2021/09/09 09:41:54;;;;;;;74.10;28.75;;;;;;;;;;5050508;28;20029;-77
2021/09/09 09:44:35;;;;;;;92.38;30.50;;;;;;;;;;5050873;28;20040;-77
2021/09/09 09:47:13;;;;;;;86.40;29.33;;;;;;;;;;5050168;28;20353;-77
2021/09/09 09:49:43;;;;;;;91.60;30.73;;;;;;;;;;5050959;28;20112;-77
2021/09/09 09:52:09;;;;;;;83.72;28.42;;;;;;;;;;5049930;28;20025;-78
2021/09/09 09:54:35;;;;;;;61.17;24.65;;;;;;;;;;5050479;28;20116;-78
2021/09/09 09:57:01;;;;;;;100.53;27.40;;;;;;;;;;5050089;28;20112;-77
2021/09/09 09:59:26;;;;;;;69.88;24.55;;;;;;;;;;5050612;28;20080;-77
2021/09/09 10:01:51;;;;;;;64.28;24.83;;;;;;;;;;5049595;28;20604;-79
2021/09/09 10:04:18;;;;;;;76.38;25.92;;;;;;;;;;5050839;28;20021;-79
2021/09/09 10:06:45;;;;;;;61.25;25.45;;;;;;;;;;5042410;28;20052;-78
2021/09/09 10:09:11;;;;;;;79.28;25.33;;;;;;;;;;5049459;28;20040;-78
2021/09/09 10:11:37;;;;;;;53.38;21.67;;;;;;;;;;5049065;28;20021;-78
2021/09/09 10:14:03;;;;;;;47.53;20.67;;;;;;;;;;5049550;28;20369;-78
2021/09/09 10:16:30;;;;;;;48.50;22.27;;;;;;;;;;5050108;28;20152;-79
2021/09/09 10:18:55;;;;;;;45.70;19.55;;;;;;;;;;5049292;28;20094;-78
2021/09/09 10:21:36;;;;;;;40.47;18.85;;;;;;;;;;5048045;28;20342;-78
2021/09/09 10:24:07;;;;;;;39.33;19.17;;;;;;;;;;5047044;28;20029;-79
2021/09/09 10:26:33;;;;;;;39.03;19.02;;;;;;;;;;5049335;28;20104;-79
2021/09/09 10:28:58;;;;;;;32.22;17.45;;;;;;;;;;5049897;28;20123;-78
2021/09/09 10:31:35;;;;;;;45.05;19.75;;;;;;;;;;5049472;28;20342;-79
2021/09/09 10:34:05;;;;;;;36.65;18.02;;;;;;;;;;5049711;28;20045;-78
2021/09/09 10:36:41;;;;;;;38.05;17.33;;;;;;;;;;5049403;28;20029;-78
2021/09/09 10:39:11;;;;;;;36.83;17.30;;;;;;;;;;5049713;28;20056;-80
2021/09/09 10:41:36;;;;;;;39.03;18.75;;;;;;;;;;5049835;28;20048;-78
2021/09/09 10:44:03;;;;;;;25.55;14.73;;;;;;;;;;5048839;28;20024;-78
2021/09/09 10:46:39;;;;;;;27.50;15.40;;;;;;;;;;5049977;28;20209;-78
2021/09/09 10:49:08;;;;;;;21.83;12.75;;;;;;;;;;5049414;28;20041;-79
2021/09/09 10:51:33;;;;;;;25.92;14.32;;;;;;;;;;5048421;28;20024;-78
2021/09/09 10:53:59;;;;;;;22.20;12.55;;;;;;;;;;5047984;28;20033;-78
2021/09/09 10:56:28;;;;;;;22.33;13.85;;;;;;;;;;5048017;28;20111;-79
2021/09/09 10:59:12;;;;;;;21.75;13.10;;;;;;;;;;5048609;28;20114;-79
2021/09/09 11:01:41;;;;;;;15.20;9.98;;;;;;;;;;5043192;28;20025;-79
2021/09/09 11:04:07;;;;;;;28.98;11.68;;;;;;;;;;5049158;28;20102;-78
2021/09/09 11:06:32;;;;;;;14.10;9.40;;;;;;;;;;5048840;28;20489;-78
2021/09/09 11:09:10;;;;;;;16.10;10.57;;;;;;;;;;5048808;28;20025;-78
2021/09/09 11:11:36;;;;;;;26.60;12.85;;;;;;;;;;5049032;28;20036;-78
2021/09/09 11:14:02;;;;;;;35.50;12.68;;;;;;;;;;5048505;28;20029;-77
2021/09/09 11:16:28;;;;;;;42.63;13.73;;;;;;;;;;5049302;28;20104;-79
2021/09/09 11:18:54;;;;;;;33.13;13.55;;;;;;;;;;5048228;28;20121;-78
2021/09/09 11:21:21;;;;;;;28.92;13.00;;;;;;;;;;5048913;28;20112;-78
2021/09/09 11:23:47;;;;;;;26.02;12.75;;;;;;;;;;5044530;28;20048;-78
2021/09/09 11:26:13;;;;;;;27.52;12.70;;;;;;;;;;5048627;28;20037;-77
2021/09/09 11:28:39;;;;;;;22.60;10.75;;;;;;;;;;5049034;28;20033;-78
2021/09/09 11:31:08;;;;;;;20.98;9.40;;;;;;;;;;5049510;28;20533;-78
2021/09/09 11:33:47;;;;;;;13.25;6.95;;;;;;;;;;5048975;28;20049;-78
2021/09/09 11:36:12;;;;;;;12.10;5.68;;;;;;;;;;5048461;28;20397;-77
2021/09/09 11:38:37;;;;;;;9.85;5.30;;;;;;;;;;5048793;28;20132;-78
2021/09/09 11:41:10;;;;;;;9.73;5.47;;;;;;;;;;5047784;28;20116;-77
2021/09/09 11:43:35;;;;;;;7.90;3.75;;;;;;;;;;5048769;28;20053;-78
2021/09/09 11:46:00;;;;;;;6.10;3.72;;;;;;;;;;5049172;28;20437;-78
2021/09/09 11:48:25;;;;;;;6.47;3.47;;;;;;;;;;5050747;28;20032;-78
2021/09/09 11:50:51;;;;;;;9.23;3.97;;;;;;;;;;5052555;28;20025;-78
2021/09/09 11:53:25;;;;;;;7.32;4.03;;;;;;;;;;5052256;28;20440;-78
2021/09/09 11:55:51;;;;;;;7.63;4.32;;;;;;;;;;5052808;28;20025;-78
2021/09/09 11:58:38;;;;;;;6.68;4.40;;;;;;;;;;5051077;28;20449;-78
2021/09/09 12:01:05;;;;;;;7.05;4.85;;;;;;;;;;5052903;28;20094;-78
2021/09/09 12:03:31;;;;;;;6.10;4.30;;;;;;;;;;5051701;28;20512;-77
2021/09/09 12:05:57;;;;;;;6.85;4.45;;;;;;;;;;5052769;28;20033;-78
2021/09/09 12:08:22;;;;;;;7.05;4.07;;;;;;;;;;5051754;28;20040;-79
2021/09/09 12:10:47;;;;;;;6.22;3.97;;;;;;;;;;5052224;28;20123;-78
2021/09/09 12:13:27;;;;;;;11.23;4.40;;;;;;;;;;5052507;28;20033;-77
2021/09/09 12:15:52;;;;;;;6.00;4.03;;;;;;;;;;5051974;28;20025;-77
2021/09/09 12:18:18;;;;;;;7.43;4.18;;;;;;;;;;5051653;28;20035;-79
2021/09/09 12:20:43;;;;;;;7.85;4.63;;;;;;;;;;5052371;28;20428;-78
2021/09/09 12:23:16;;;;;;;5.70;3.35;;;;;;;;;;5045203;28;20099;-78
2021/09/09 12:25:41;;;;;;;4.90;3.35;;;;;;;;;;5032373;28;20029;-78
2021/09/09 12:28:08;;;;;;;6.10;2.90;;;;;;;;;;5030166;28;20374;-78
2021/09/09 12:30:35;;;;;;;4.50;2.67;;;;;;;;;;5048915;28;20065;-78
2021/09/09 12:33:04;;;;;;;3.67;2.25;;;;;;;;;;5051417;28;20045;-78
2021/09/09 12:35:30;;;;;;;4.88;2.17;;;;;;;;;;5051887;28;20025;-78
2021/09/09 12:38:13;;;;;;;3.78;2.00;;;;;;;;;;5051920;28;20470;-80
2021/09/09 12:40:40;;;;;;;4.35;2.28;;;;;;;;;;5052026;28;20033;-78
2021/09/09 12:43:24;;;;;;;3.22;2.35;;;;;;;;;;5052002;28;20040;-79
2021/09/09 12:45:49;;;;;;;3.45;2.08;;;;;;;;;;5046047;28;20153;-79
2021/09/09 12:48:15;;;;;;;3.97;2.50;;;;;;;;;;5046612;28;20104;-78
2021/09/09 12:50:49;;;;;;;3.50;2.45;;;;;;;;;;5051347;28;20054;-78
2021/09/09 12:53:14;;;;;;;4.70;2.35;;;;;;;;;;5051320;28;20021;-78
2021/09/09 12:55:40;;;;;;;3.15;2.20;;;;;;;;;;5049319;28;20127;-78
2021/09/09 12:58:14;;;;;;;4.35;2.08;;;;;;;;;;5050918;28;20032;-78
2021/09/09 13:00:39;;;;;;;3.45;2.00;;;;;;;;;;5050998;28;20094;-78
2021/09/09 13:03:05;;;;;;;3.85;2.53;;;;;;;;;;5051027;28;20037;-79
2021/09/09 13:05:30;;;;;;;4.03;2.60;;;;;;;;;;5051978;28;20070;-79
2021/09/09 13:07:55;;;;;;;7.35;2.83;;;;;;;;;;5050731;28;20033;-77
2021/09/09 13:10:21;;;;;;;4.22;2.67;;;;;;;;;;5051003;28;20082;-78
2021/09/09 13:12:46;;;;;;;4.93;3.30;;;;;;;;;;5050578;28;20473;-77
2021/09/09 13:15:12;;;;;;;4.57;3.40;;;;;;;;;;5050951;28;20411;-77
2021/09/09 13:17:37;;;;;;;6.05;3.90;;;;;;;;;;5050139;28;20133;-77
2021/09/09 13:20:02;;;;;;;18.75;6.70;;;;;;;;;;5050981;28;20029;-77
2021/09/09 13:22:28;;;;;;;7.97;4.78;;;;;;;;;;5050659;28;20033;-77
2021/09/09 13:24:53;;;;;;;4.70;3.10;;;;;;;;;;5050656;28;20370;-76
2021/09/09 13:27:18;;;;;;;7.75;3.58;;;;;;;;;;5050492;28;20025;-80
2021/09/09 13:29:44;;;;;;;5.65;3.10;;;;;;;;;;5051041;28;20389;-76
2021/09/09 13:32:09;;;;;;;3.88;2.10;;;;;;;;;;5050959;28;20074;-76
2021/09/09 13:34:34;;;;;;;9.93;2.70;;;;;;;;;;5050485;28;20100;-76
2021/09/09 13:37:00;;;;;;;7.65;3.00;;;;;;;;;;5050126;28;20048;-77
2021/09/09 13:39:25;;;;;;;5.47;3.10;;;;;;;;;;5049836;28;20110;-79
2021/09/09 13:41:50;;;;;;;6.15;3.10;;;;;;;;;;5049298;28;20461;-79
2021/09/09 13:44:16;;;;;;;8.43;3.90;;;;;;;;;;5049881;28;20082;-77
2021/09/09 13:46:41;;;;;;;19.50;10.45;;;;;;;;;;5049457;28;20037;-77
2021/09/09 13:49:06;;;;;;;5.80;4.05;;;;;;;;;;5049433;28;20036;-78
2021/09/09 13:51:32;;;;;;;12.93;5.38;;;;;;;;;;5049216;28;20162;-77
2021/09/09 13:53:57;;;;;;;8.00;4.70;;;;;;;;;;5049400;28;20029;-77
2021/09/09 13:56:22;;;;;;;8.10;4.10;;;;;;;;;;5051106;28;20017;-78
2021/09/09 13:58:47;;;;;;;10.50;3.80;;;;;;;;;;5049995;28;20462;-77
2021/09/09 14:01:14;;;;;;;5.35;1.95;;;;;;;;;;5050272;28;20137;-78
2021/09/09 14:03:39;;;;;;;4.05;1.83;;;;;;;;;;5050102;28;20017;-77
2021/09/09 14:06:04;;;;;;;4.20;1.80;;;;;;;;;;5050450;28;20503;-78
2021/09/09 14:08:30;;;;;;;2.90;1.83;;;;;;;;;;5050523;28;20028;-76
2021/09/09 14:10:55;;;;;;;5.15;2.47;;;;;;;;;;5049659;28;20086;-77
2021/09/09 14:13:21;;;;;;;10.07;2.83;;;;;;;;;;5043517;28;20381;-77
2021/09/09 14:15:46;;;;;;;11.90;3.38;;;;;;;;;;5027788;28;20381;-78